sensor_id;sensor_type;location;lat;lon;timestamp;pressure;altitude;pressure_sealevel;temperature;humidity
70745;BME280;59284;31.390;34.904;2022-07-17T00:01:34;93687.28;;;18.82;100.00
70745;BME280;59284;31.390;34.904;2022-07-17T00:04:00;93683.88;;;18.78;100.00
70745;BME280;59284;31.390;34.904;2022-07-17T00:06:26;93677.44;;;18.72;100.00
70745;BME280;59284;31.390;34.904;2022-07-17T00:08:51;93683.44;;;18.69;100.00
70745;BME280;59284;31.390;34.904;2022-07-17T00:11:17;93682.38;;;18.77;100.00
70745;BME280;59284;31.390;34.904;2022-07-17T00:21:43;93665.41;;;18.64;100.00
70745;BME280;59284;31.390;34.904;2022-07-17T00:24:08;93659.44;;;18.71;100.00
70745;BME280;59284;31.390;34.904;2022-07-17T00:26:37;93660.19;;;18.75;100.00
70745;BME280;59284;31.390;34.904;2022-07-17T00:29:05;93659.06;;;18.72;100.00
70745;BME280;59284;31.390;34.904;2022-07-17T00:31:30;93659.06;;;18.72;100.00
70745;BME280;59284;31.390;34.904;2022-07-17T00:33:57;93658.72;;;18.74;100.00
70745;BME280;59284;31.390;34.904;2022-07-17T00:36:23;93650.41;;;18.72;100.00
70745;BME280;59284;31.390;34.904;2022-07-17T00:38:48;93648.09;;;18.60;100.00
70745;BME280;59284;31.390;34.904;2022-07-17T00:41:14;93654.09;;;18.60;100.00
70745;BME280;59284;31.390;34.904;2022-07-17T00:43:40;93637.66;;;18.67;100.00
70745;BME280;59284;31.390;34.904;2022-07-17T00:46:06;93643.16;;;18.51;100.00
70745;BME280;59284;31.390;34.904;2022-07-17T00:48:34;93637.22;;;18.58;100.00
70745;BME280;59284;31.390;34.904;2022-07-17T00:51:08;93633.78;;;18.50;100.00
70745;BME280;59284;31.390;34.904;2022-07-17T00:53:36;93631.94;;;18.54;100.00
70745;BME280;59284;31.390;34.904;2022-07-17T00:56:05;93628.19;;;18.55;100.00
70745;BME280;59284;31.390;34.904;2022-07-17T00:58:35;93627.81;;;18.57;100.00
70745;BME280;59284;31.390;34.904;2022-07-17T01:01:09;93623.63;;;18.49;100.00
70745;BME280;59284;31.390;34.904;2022-07-17T01:03:37;93620.28;;;18.52;100.00
70745;BME280;59284;31.390;34.904;2022-07-17T01:06:08;93615.03;;;18.52;100.00
70745;BME280;59284;31.390;34.904;2022-07-17T01:08:37;93624.00;;;18.47;100.00
70745;BME280;59284;31.390;34.904;2022-07-17T01:11:03;93615.75;;;18.45;100.00
70745;BME280;59284;31.390;34.904;2022-07-17T01:13:35;93614.19;;;18.41;100.00
70745;BME280;59284;31.390;34.904;2022-07-17T01:16:00;93597.69;;;18.44;100.00
70745;BME280;59284;31.390;34.904;2022-07-17T01:18:27;93600.75;;;18.49;100.00
70745;BME280;59284;31.390;34.904;2022-07-17T01:20:54;93596.56;;;18.45;100.00
70745;BME280;59284;31.390;34.904;2022-07-17T01:23:20;93591.69;;;18.43;100.00
70745;BME280;59284;31.390;34.904;2022-07-17T01:25:46;93587.53;;;18.39;100.00
70745;BME280;59284;31.390;34.904;2022-07-17T01:28:43;93588.75;;;18.48;100.00
70745;BME280;59284;31.390;34.904;2022-07-17T01:31:08;93590.22;;;18.46;100.00
70745;BME280;59284;31.390;34.904;2022-07-17T01:33:34;93590.53;;;18.37;100.00
70745;BME280;59284;31.390;34.904;2022-07-17T01:36:00;93599.13;;;18.34;100.00
70745;BME280;59284;31.390;34.904;2022-07-17T01:38:26;93600.69;;;18.42;100.00
70745;BME280;59284;31.390;34.904;2022-07-17T01:40:52;93605.22;;;18.45;100.00
70745;BME280;59284;31.390;34.904;2022-07-17T01:43:18;93600.06;;;18.63;100.00
70745;BME280;59284;31.390;34.904;2022-07-17T01:45:43;93608.78;;;18.77;100.00
70745;BME280;59284;31.390;34.904;2022-07-17T01:48:09;93601.34;;;18.86;100.00
70745;BME280;59284;31.390;34.904;2022-07-17T01:50:35;93593.53;;;19.04;100.00
70745;BME280;59284;31.390;34.904;2022-07-17T01:53:01;93605.56;;;19.09;100.00
70745;BME280;59284;31.390;34.904;2022-07-17T01:55:27;93598.44;;;19.16;100.00
70745;BME280;59284;31.390;34.904;2022-07-17T01:57:53;93593.94;;;19.13;100.00
70745;BME280;59284;31.390;34.904;2022-07-17T02:00:19;93600.00;;;19.24;100.00
70745;BME280;59284;31.390;34.904;2022-07-17T02:02:49;93602.22;;;19.15;100.00
70745;BME280;59284;31.390;34.904;2022-07-17T02:05:16;93605.56;;;19.05;100.00
70745;BME280;59284;31.390;34.904;2022-07-17T02:07:42;93599.50;;;18.98;100.00
70745;BME280;59284;31.390;34.904;2022-07-17T02:10:11;93606.25;;;18.91;100.00
70745;BME280;59284;31.390;34.904;2022-07-17T02:12:39;93603.22;;;18.89;100.00
70745;BME280;59284;31.390;34.904;2022-07-17T02:15:05;93606.25;;;18.91;100.00
70745;BME280;59284;31.390;34.904;2022-07-17T02:17:31;93604.41;;;18.99;100.00
70745;BME280;59284;31.390;34.904;2022-07-17T02:19:57;93599.13;;;18.92;100.00
70745;BME280;59284;31.390;34.904;2022-07-17T02:22:22;93609.25;;;18.93;100.00
70745;BME280;59284;31.390;34.904;2022-07-17T02:24:48;93615.22;;;18.87;100.00
70745;BME280;59284;31.390;34.904;2022-07-17T02:27:14;93613.28;;;18.73;100.00
70745;BME280;59284;31.390;34.904;2022-07-17T02:29:40;93611.41;;;18.74;100.00
70745;BME280;59284;31.390;34.904;2022-07-17T02:32:05;93607.72;;;18.85;100.00
70745;BME280;59284;31.390;34.904;2022-07-17T02:34:31;93601.75;;;18.92;100.00
70745;BME280;59284;31.390;34.904;2022-07-17T02:36:58;93609.25;;;18.90;100.00
70745;BME280;59284;31.390;34.904;2022-07-17T02:39:24;93614.50;;;18.90;100.00
70745;BME280;59284;31.390;34.904;2022-07-17T02:41:49;93617.47;;;18.88;100.00
70745;BME280;59284;31.390;34.904;2022-07-17T02:44:15;93616.81;;;19.06;100.00
70745;BME280;59284;31.390;34.904;2022-07-17T02:46:42;93616.06;;;19.05;100.00
70745;BME280;59284;31.390;34.904;2022-07-17T02:49:07;93616.47;;;19.14;100.00
70745;BME280;59284;31.390;34.904;2022-07-17T02:51:34;93624.41;;;19.21;100.00
70745;BME280;59284;31.390;34.904;2022-07-17T02:53:59;93617.25;;;19.22;100.00
70745;BME280;59284;31.390;34.904;2022-07-17T02:56:25;93619.53;;;19.27;100.00
70745;BME280;59284;31.390;34.904;2022-07-17T02:58:51;93625.91;;;19.26;100.00
70745;BME280;59284;31.390;34.904;2022-07-17T03:01:16;93624.47;;;19.39;100.00
70745;BME280;59284;31.390;34.904;2022-07-17T03:03:43;93625.63;;;19.38;100.00
70745;BME280;59284;31.390;34.904;2022-07-17T03:06:10;93632.75;;;19.48;100.00
70745;BME280;59284;31.390;34.904;2022-07-17T03:08:37;93628.66;;;19.54;100.00
70745;BME280;59284;31.390;34.904;2022-07-17T03:11:03;93635.44;;;19.62;100.00
70745;BME280;59284;31.390;34.904;2022-07-17T03:13:29;93629.09;;;19.77;100.00
70745;BME280;59284;31.390;34.904;2022-07-17T03:15:55;93640.75;;;19.83;100.00
70745;BME280;59284;31.390;34.904;2022-07-17T03:18:21;93644.13;;;19.87;100.00
70745;BME280;59284;31.390;34.904;2022-07-17T03:20:47;93655.44;;;20.02;100.00
70745;BME280;59284;31.390;34.904;2022-07-17T03:23:15;93683.22;;;19.78;100.00
70745;BME280;59284;31.390;34.904;2022-07-17T03:25:41;93702.00;;;19.80;100.00
70745;BME280;59284;31.390;34.904;2022-07-17T03:28:07;93712.63;;;20.05;100.00
70745;BME280;59284;31.390;34.904;2022-07-17T03:30:34;93735.56;;;20.15;100.00
70745;BME280;59284;31.390;34.904;2022-07-17T03:32:59;93752.09;;;19.98;100.00
70745;BME280;59284;31.390;34.904;2022-07-17T03:35:26;93755.53;;;20.16;100.00
70745;BME280;59284;31.390;34.904;2022-07-17T03:37:52;93755.81;;;19.90;100.00
70745;BME280;59284;31.390;34.904;2022-07-17T03:40:18;93752.00;;;19.80;100.00
70745;BME280;59284;31.390;34.904;2022-07-17T03:42:44;93745.16;;;19.58;100.00
70745;BME280;59284;31.390;34.904;2022-07-17T03:45:10;93735.38;;;19.51;100.00
70745;BME280;59284;31.390;34.904;2022-07-17T03:47:36;93731.63;;;19.59;100.00
70745;BME280;59284;31.390;34.904;2022-07-17T03:50:01;93737.34;;;19.76;100.00
70745;BME280;59284;31.390;34.904;2022-07-17T03:52:27;93729.81;;;19.64;100.00
70745;BME280;59284;31.390;34.904;2022-07-17T03:54:53;93733.22;;;19.78;100.00
70745;BME280;59284;31.390;34.904;2022-07-17T03:57:19;93734.38;;;19.84;100.00
70745;BME280;59284;31.390;34.904;2022-07-17T03:59:45;93726.13;;;19.96;100.00
70745;BME280;59284;31.390;34.904;2022-07-17T04:02:10;93740.44;;;20.02;100.00
70745;BME280;59284;31.390;34.904;2022-07-17T04:04:36;93747.13;;;19.79;100.00
70745;BME280;59284;31.390;34.904;2022-07-17T04:07:05;93744.53;;;19.89;100.00
70745;BME280;59284;31.390;34.904;2022-07-17T04:09:32;93742.66;;;19.86;100.00
70745;BME280;59284;31.390;34.904;2022-07-17T04:11:58;93740.41;;;19.88;100.00
70745;BME280;59284;31.390;34.904;2022-07-17T04:14:24;93742.63;;;19.83;100.00
70745;BME280;59284;31.390;34.904;2022-07-17T04:16:50;93755.88;;;20.07;100.00
70745;BME280;59284;31.390;34.904;2022-07-17T04:19:16;93762.63;;;19.98;100.00
70745;BME280;59284;31.390;34.904;2022-07-17T04:21:43;93761.53;;;20.20;100.00
70745;BME280;59284;31.390;34.904;2022-07-17T04:24:08;93780.81;;;20.49;100.00
70745;BME280;59284;31.390;34.904;2022-07-17T04:26:34;93819.59;;;20.48;100.00
70745;BME280;59284;31.390;34.904;2022-07-17T04:29:00;93842.16;;;20.49;100.00
70745;BME280;59284;31.390;34.904;2022-07-17T04:31:26;93846.13;;;20.04;100.00
70745;BME280;59284;31.390;34.904;2022-07-17T04:33:51;93845.91;;;20.31;100.00
70745;BME280;59284;31.390;34.904;2022-07-17T04:36:19;93852.78;;;20.95;100.00
70745;BME280;59284;31.390;34.904;2022-07-17T04:38:45;93898.72;;;20.80;100.00
70745;BME280;59284;31.390;34.904;2022-07-17T04:41:10;93909.25;;;20.90;100.00
70745;BME280;59284;31.390;34.904;2022-07-17T04:43:37;93912.53;;;20.45;100.00
70745;BME280;59284;31.390;34.904;2022-07-17T04:46:06;93919.78;;;20.80;100.00
70745;BME280;59284;31.390;34.904;2022-07-17T04:48:31;93919.81;;;20.83;100.00
70745;BME280;59284;31.390;34.904;2022-07-17T04:50:58;93930.44;;;21.22;100.00
70745;BME280;59284;31.390;34.904;2022-07-17T04:53:26;94019.28;;;20.97;100.00
70745;BME280;59284;31.390;34.904;2022-07-17T04:55:58;94005.59;;;20.67;100.00
70745;BME280;59284;31.390;34.904;2022-07-17T05:01:38;94020.00;;;20.87;100.00
70745;BME280;59284;31.390;34.904;2022-07-17T05:04:10;94029.13;;;21.07;100.00
70745;BME280;59284;31.390;34.904;2022-07-17T05:06:36;94033.75;;;21.38;100.00
70745;BME280;59284;31.390;34.904;2022-07-17T05:09:25;94045.00;;;21.28;100.00
70745;BME280;59284;31.390;34.904;2022-07-17T05:11:54;94072.22;;;21.71;100.00
70745;BME280;59284;31.390;34.904;2022-07-17T05:14:25;94064.69;;;21.62;100.00
70745;BME280;59284;31.390;34.904;2022-07-17T05:16:59;94094.06;;;21.50;100.00
70745;BME280;59284;31.390;34.904;2022-07-17T05:19:29;94080.16;;;21.64;100.00
70745;BME280;59284;31.390;34.904;2022-07-17T05:21:54;94093.78;;;21.91;100.00
70745;BME280;59284;31.390;34.904;2022-07-17T05:24:22;94120.94;;;21.84;100.00
70745;BME280;59284;31.390;34.904;2022-07-17T05:27:03;94118.72;;;22.14;100.00
70745;BME280;59284;31.390;34.904;2022-07-17T05:29:34;94149.22;;;21.80;100.00
70745;BME280;59284;31.390;34.904;2022-07-17T05:32:02;94140.59;;;22.11;100.00
70745;BME280;59284;31.390;34.904;2022-07-17T05:34:28;94151.16;;;22.22;100.00
70745;BME280;59284;31.390;34.904;2022-07-17T05:36:54;94164.44;;;22.61;100.00
70745;BME280;59284;31.390;34.904;2022-07-17T05:39:23;94192.38;;;22.69;100.00
70745;BME280;59284;31.390;34.904;2022-07-17T05:41:52;94221.06;;;22.88;100.00
70745;BME280;59284;31.390;34.904;2022-07-17T05:44:21;94206.69;;;22.50;100.00
70745;BME280;59284;31.390;34.904;2022-07-17T05:46:46;94201.78;;;22.59;100.00
70745;BME280;59284;31.390;34.904;2022-07-17T05:49:12;94211.19;;;23.17;100.00
70745;BME280;59284;31.390;34.904;2022-07-17T05:51:38;94233.53;;;23.01;100.00
70745;BME280;59284;31.390;34.904;2022-07-17T05:54:17;94232.34;;;23.17;100.00
70745;BME280;59284;31.390;34.904;2022-07-17T05:56:52;94250.16;;;22.95;100.00
70745;BME280;59284;31.390;34.904;2022-07-17T05:59:18;94255.03;;;23.25;100.00
70745;BME280;59284;31.390;34.904;2022-07-17T06:01:44;94273.19;;;23.40;100.00
70745;BME280;59284;31.390;34.904;2022-07-17T06:04:23;94270.19;;;23.07;100.00
70745;BME280;59284;31.390;34.904;2022-07-17T06:06:49;94266.38;;;23.36;100.00
70745;BME280;59284;31.390;34.904;2022-07-17T06:09:14;94259.97;;;23.16;100.00
70745;BME280;59284;31.390;34.904;2022-07-17T06:11:45;94276.97;;;23.22;100.00
70745;BME280;59284;31.390;34.904;2022-07-17T06:14:12;94278.13;;;22.99;100.00
70745;BME280;59284;31.390;34.904;2022-07-17T06:16:48;94276.59;;;23.27;100.00
70745;BME280;59284;31.390;34.904;2022-07-17T06:19:14;94286.97;;;24.04;100.00
70745;BME280;59284;31.390;34.904;2022-07-17T06:21:45;94297.72;;;23.58;100.00
70745;BME280;59284;31.390;34.904;2022-07-17T06:24:10;94302.50;;;24.09;100.00
70745;BME280;59284;31.390;34.904;2022-07-17T06:26:37;94314.47;;;24.38;100.00
70745;BME280;59284;31.390;34.904;2022-07-17T06:29:03;94302.34;;;24.45;100.00
70745;BME280;59284;31.390;34.904;2022-07-17T06:31:48;94317.69;;;24.74;100.00
70745;BME280;59284;31.390;34.904;2022-07-17T06:34:34;94309.69;;;24.05;100.00
70745;BME280;59284;31.390;34.904;2022-07-17T06:37:45;94316.88;;;24.88;100.00
70745;BME280;59284;31.390;34.904;2022-07-17T06:40:48;94323.19;;;25.04;100.00
70745;BME280;59284;31.390;34.904;2022-07-17T06:47:05;94321.78;;;24.89;100.00
70745;BME280;59284;31.390;34.904;2022-07-17T06:49:31;94323.88;;;25.16;100.00
70745;BME280;59284;31.390;34.904;2022-07-17T06:51:58;94312.22;;;25.47;100.00
70745;BME280;59284;31.390;34.904;2022-07-17T06:54:27;94317.69;;;25.29;100.00
70745;BME280;59284;31.390;34.904;2022-07-17T06:56:53;94328.31;;;25.73;100.00
70745;BME280;59284;31.390;34.904;2022-07-17T06:59:20;94330.66;;;25.64;100.00
70745;BME280;59284;31.390;34.904;2022-07-17T07:01:48;94337.19;;;25.94;100.00
70745;BME280;59284;31.390;34.904;2022-07-17T07:04:15;94349.50;;;25.81;100.00
70745;BME280;59284;31.390;34.904;2022-07-17T07:06:41;94347.03;;;25.59;100.00
70745;BME280;59284;31.390;34.904;2022-07-17T07:09:07;94349.22;;;25.68;100.00
70745;BME280;59284;31.390;34.904;2022-07-17T07:11:36;94341.38;;;25.95;100.00
70745;BME280;59284;31.390;34.904;2022-07-17T07:14:13;94351.78;;;25.34;100.00
70745;BME280;59284;31.390;34.904;2022-07-17T07:16:39;94357.50;;;26.14;100.00
70745;BME280;59284;31.390;34.904;2022-07-17T07:19:11;94360.00;;;25.50;100.00
70745;BME280;59284;31.390;34.904;2022-07-17T07:21:37;94348.19;;;25.96;100.00
70745;BME280;59284;31.390;34.904;2022-07-17T07:24:03;94352.13;;;26.48;100.00
70745;BME280;59284;31.390;34.904;2022-07-17T07:26:29;94375.13;;;26.95;100.00
70745;BME280;59284;31.390;34.904;2022-07-17T07:28:55;94372.53;;;26.58;100.00
70745;BME280;59284;31.390;34.904;2022-07-17T07:31:21;94378.56;;;26.62;100.00
70745;BME280;59284;31.390;34.904;2022-07-17T07:33:46;94384.50;;;26.73;100.00
70745;BME280;59284;31.390;34.904;2022-07-17T07:36:12;94376.56;;;26.39;100.00
70745;BME280;59284;31.390;34.904;2022-07-17T07:38:38;94380.63;;;26.17;100.00
70745;BME280;59284;31.390;34.904;2022-07-17T07:41:04;94373.06;;;26.80;100.00
70745;BME280;59284;31.390;34.904;2022-07-17T07:43:30;94377.06;;;26.61;100.00
70745;BME280;59284;31.390;34.904;2022-07-17T07:45:57;94376.84;;;27.05;100.00
70745;BME280;59284;31.390;34.904;2022-07-17T07:48:24;94380.63;;;26.51;100.00
70745;BME280;59284;31.390;34.904;2022-07-17T07:50:49;94379.09;;;27.37;100.00
70745;BME280;59284;31.390;34.904;2022-07-17T07:53:15;94389.09;;;27.26;100.00
70745;BME280;59284;31.390;34.904;2022-07-17T07:55:41;94394.13;;;27.47;100.00
70745;BME280;59284;31.390;34.904;2022-07-17T07:58:09;94392.13;;;27.55;100.00
70745;BME280;59284;31.390;34.904;2022-07-17T08:00:37;94386.91;;;27.48;100.00
70745;BME280;59284;31.390;34.904;2022-07-17T08:03:03;94390.28;;;27.95;100.00
70745;BME280;59284;31.390;34.904;2022-07-17T08:05:29;94393.63;;;28.22;100.00
70745;BME280;59284;31.390;34.904;2022-07-17T08:07:55;94395.78;;;27.84;100.00
70745;BME280;59284;31.390;34.904;2022-07-17T08:10:21;94391.78;;;28.38;100.00
70745;BME280;59284;31.390;34.904;2022-07-17T08:12:47;94388.78;;;27.94;100.00
70745;BME280;59284;31.390;34.904;2022-07-17T08:15:14;94390.75;;;27.90;100.00
70745;BME280;59284;31.390;34.904;2022-07-17T08:17:41;94380.97;;;28.45;100.00
70745;BME280;59284;31.390;34.904;2022-07-17T08:20:07;94388.56;;;28.27;96.87
70745;BME280;59284;31.390;34.904;2022-07-17T08:22:33;94387.03;;;28.07;94.43
70745;BME280;59284;31.390;34.904;2022-07-17T08:24:58;94386.03;;;29.31;93.28
70745;BME280;59284;31.390;34.904;2022-07-17T08:27:24;94391.72;;;29.49;98.73
70745;BME280;59284;31.390;34.904;2022-07-17T08:29:50;94375.34;;;28.60;100.00
70745;BME280;59284;31.390;34.904;2022-07-17T08:32:15;94378.66;;;28.47;91.98
70745;BME280;59284;31.390;34.904;2022-07-17T08:34:41;94379.09;;;28.82;96.77
70745;BME280;59284;31.390;34.904;2022-07-17T08:37:07;94386.28;;;29.37;92.89
70745;BME280;59284;31.390;34.904;2022-07-17T08:39:32;94383.09;;;29.58;89.76
70745;BME280;59284;31.390;34.904;2022-07-17T08:41:58;94379.22;;;29.75;89.83
70745;BME280;59284;31.390;34.904;2022-07-17T08:44:24;94376.91;;;29.45;91.27
70745;BME280;59284;31.390;34.904;2022-07-17T08:46:50;94371.75;;;29.86;89.20
70745;BME280;59284;31.390;34.904;2022-07-17T08:49:20;94377.84;;;29.54;87.04
70745;BME280;59284;31.390;34.904;2022-07-17T08:51:47;94372.44;;;29.42;85.99
70745;BME280;59284;31.390;34.904;2022-07-17T08:54:14;94361.88;;;29.83;88.10
70745;BME280;59284;31.390;34.904;2022-07-17T08:56:40;94361.94;;;29.79;91.62
70745;BME280;59284;31.390;34.904;2022-07-17T08:59:06;94353.44;;;29.84;88.27
70745;BME280;59284;31.390;34.904;2022-07-17T09:01:32;94362.22;;;29.37;88.42
70745;BME280;59284;31.390;34.904;2022-07-17T09:04:02;94359.47;;;29.40;84.21
70745;BME280;59284;31.390;34.904;2022-07-17T09:06:36;94349.47;;;29.89;84.49
70745;BME280;59284;31.390;34.904;2022-07-17T09:09:05;94334.22;;;30.97;82.64
70745;BME280;59284;31.390;34.904;2022-07-17T09:11:44;94348.72;;;29.88;83.03
70745;BME280;59284;31.390;34.904;2022-07-17T09:14:10;94347.44;;;29.48;85.27
70745;BME280;59284;31.390;34.904;2022-07-17T09:16:48;94353.28;;;29.59;84.44
70745;BME280;59284;31.390;34.904;2022-07-17T09:19:24;94339.63;;;30.43;84.46
70745;BME280;59284;31.390;34.904;2022-07-17T09:21:50;94338.97;;;30.39;83.87
70745;BME280;59284;31.390;34.904;2022-07-17T09:24:18;94346.69;;;30.21;81.54
70745;BME280;59284;31.390;34.904;2022-07-17T09:26:44;94342.94;;;30.60;81.75
70745;BME280;59284;31.390;34.904;2022-07-17T09:29:10;94346.78;;;30.34;83.46
70745;BME280;59284;31.390;34.904;2022-07-17T09:31:37;94339.69;;;30.27;84.14
70745;BME280;59284;31.390;34.904;2022-07-17T09:34:04;94332.06;;;30.26;84.48
70745;BME280;59284;31.390;34.904;2022-07-17T09:36:36;94335.59;;;30.64;82.12
70745;BME280;59284;31.390;34.904;2022-07-17T09:39:02;94322.94;;;31.40;78.74
70745;BME280;59284;31.390;34.904;2022-07-17T09:41:27;94332.94;;;31.14;79.06
70745;BME280;59284;31.390;34.904;2022-07-17T09:44:00;94326.13;;;30.34;81.26
70745;BME280;59284;31.390;34.904;2022-07-17T09:46:28;94326.50;;;30.99;77.79
70745;BME280;59284;31.390;34.904;2022-07-17T09:48:56;94326.34;;;31.53;78.85
70745;BME280;59284;31.390;34.904;2022-07-17T09:51:32;94325.94;;;31.30;77.21
70745;BME280;59284;31.390;34.904;2022-07-17T09:54:02;94319.94;;;31.13;78.48
70745;BME280;59284;31.390;34.904;2022-07-17T09:56:37;94319.13;;;30.91;78.04
70745;BME280;59284;31.390;34.904;2022-07-17T09:59:11;94323.81;;;30.62;80.92
70745;BME280;59284;31.390;34.904;2022-07-17T10:01:42;94325.09;;;30.57;79.50
70745;BME280;59284;31.390;34.904;2022-07-17T10:04:16;94319.41;;;31.31;77.77
70745;BME280;59284;31.390;34.904;2022-07-17T10:06:43;94310.16;;;32.65;75.53
70745;BME280;59284;31.390;34.904;2022-07-17T10:09:09;94307.84;;;30.83;78.19
70745;BME280;59284;31.390;34.904;2022-07-17T10:11:38;94316.59;;;31.34;78.56
70745;BME280;59284;31.390;34.904;2022-07-17T10:14:13;94313.63;;;31.66;81.78
70745;BME280;59284;31.390;34.904;2022-07-17T10:16:40;94312.47;;;32.23;80.32
70745;BME280;59284;31.390;34.904;2022-07-17T10:19:22;94307.06;;;30.58;80.66
70745;BME280;59284;31.390;34.904;2022-07-17T10:21:59;94287.09;;;32.24;77.27
70745;BME280;59284;31.390;34.904;2022-07-17T10:24:27;94306.00;;;32.64;75.02
70745;BME280;59284;31.390;34.904;2022-07-17T10:26:53;94302.44;;;32.45;73.30
70745;BME280;59284;31.390;34.904;2022-07-17T10:31:57;94301.22;;;33.84;65.95
70745;BME280;59284;31.390;34.904;2022-07-17T10:34:43;94308.72;;;33.04;68.65
70745;BME280;59284;31.390;34.904;2022-07-17T10:39:55;94304.38;;;34.10;65.67
70745;BME280;59284;31.390;34.904;2022-07-17T10:42:45;94310.19;;;32.74;68.10
70745;BME280;59284;31.390;34.904;2022-07-17T10:45:16;94307.81;;;33.07;68.34
70745;BME280;59284;31.390;34.904;2022-07-17T10:48:00;94307.34;;;33.84;62.81
70745;BME280;59284;31.390;34.904;2022-07-17T10:53:10;94301.97;;;36.67;55.89
70745;BME280;59284;31.390;34.904;2022-07-17T10:55:41;94308.25;;;34.78;60.44
70745;BME280;59284;31.390;34.904;2022-07-17T11:01:04;94304.28;;;33.37;61.73
70745;BME280;59284;31.390;34.904;2022-07-17T11:03:51;94299.13;;;34.75;60.71
70745;BME280;59284;31.390;34.904;2022-07-17T11:06:41;94303.19;;;35.36;56.52
70745;BME280;59284;31.390;34.904;2022-07-17T11:09:32;94303.66;;;35.58;54.31
70745;BME280;59284;31.390;34.904;2022-07-17T11:11:57;94298.63;;;36.42;53.64
70745;BME280;59284;31.390;34.904;2022-07-17T11:14:25;94306.50;;;34.98;56.69
70745;BME280;59284;31.390;34.904;2022-07-17T11:16:55;94287.59;;;34.15;57.51
70745;BME280;59284;31.390;34.904;2022-07-17T11:19:32;94302.22;;;34.32;56.60
70745;BME280;59284;31.390;34.904;2022-07-17T11:22:08;94307.78;;;34.19;57.85
70745;BME280;59284;31.390;34.904;2022-07-17T11:24:47;94296.88;;;35.15;56.88
70745;BME280;59284;31.390;34.904;2022-07-17T11:27:24;94312.41;;;35.20;56.11
70745;BME280;59284;31.390;34.904;2022-07-17T11:29:57;94298.63;;;35.18;54.49
70745;BME280;59284;31.390;34.904;2022-07-17T11:32:23;94299.38;;;35.19;54.17
70745;BME280;59284;31.390;34.904;2022-07-17T11:34:51;94290.13;;;34.78;55.86
70745;BME280;59284;31.390;34.904;2022-07-17T11:37:17;94287.09;;;34.43;55.25
70745;BME280;59284;31.390;34.904;2022-07-17T11:39:53;94278.94;;;35.74;53.15
70745;BME280;59284;31.390;34.904;2022-07-17T11:42:21;94283.84;;;34.72;52.81
70745;BME280;59284;31.390;34.904;2022-07-17T11:44:50;94276.69;;;35.58;51.20
70745;BME280;59284;31.390;34.904;2022-07-17T11:47:27;94278.97;;;34.94;51.01
70745;BME280;59284;31.390;34.904;2022-07-17T11:52:46;94268.25;;;35.18;49.41
70745;BME280;59284;31.390;34.904;2022-07-17T11:55:13;94270.03;;;35.83;47.53
70745;BME280;59284;31.390;34.904;2022-07-17T12:04:56;94265.63;;;36.38;45.79
70745;BME280;59284;31.390;34.904;2022-07-17T12:07:46;94268.06;;;35.21;45.88
70745;BME280;59284;31.390;34.904;2022-07-17T12:10:39;94264.03;;;35.64;44.56
70745;BME280;59284;31.390;34.904;2022-07-17T12:13:14;94259.72;;;35.96;45.91
70745;BME280;59284;31.390;34.904;2022-07-17T12:15:52;94269.72;;;34.86;44.92
70745;BME280;59284;31.390;34.904;2022-07-17T12:18:41;94267.53;;;35.79;43.99
70745;BME280;59284;31.390;34.904;2022-07-17T12:21:09;94239.75;;;36.96;42.50
70745;BME280;59284;31.390;34.904;2022-07-17T12:26:53;94254.97;;;39.72;38.31
70745;BME280;59284;31.390;34.904;2022-07-17T12:29:47;94252.41;;;38.11;41.29
70745;BME280;59284;31.390;34.904;2022-07-17T12:32:17;94262.09;;;37.51;43.02
70745;BME280;59284;31.390;34.904;2022-07-17T12:34:48;94258.38;;;37.89;41.77
70745;BME280;59284;31.390;34.904;2022-07-17T12:37:46;94249.09;;;39.90;39.06
70745;BME280;59284;31.390;34.904;2022-07-17T12:40:13;94241.13;;;39.59;39.39
70745;BME280;59284;31.390;34.904;2022-07-17T12:42:42;94252.91;;;38.35;42.77
70745;BME280;59284;31.390;34.904;2022-07-17T12:45:15;94260.16;;;38.75;40.22
70745;BME280;59284;31.390;34.904;2022-07-17T12:47:45;94259.25;;;38.57;40.84
70745;BME280;59284;31.390;34.904;2022-07-17T12:50:15;94260.59;;;38.73;40.14
70745;BME280;59284;31.390;34.904;2022-07-17T12:52:49;94256.34;;;39.51;40.06
70745;BME280;59284;31.390;34.904;2022-07-17T12:55:20;94239.22;;;42.59;36.68
70745;BME280;59284;31.390;34.904;2022-07-17T12:58:09;94259.63;;;39.13;39.23
70745;BME280;59284;31.390;34.904;2022-07-17T13:01:08;94254.06;;;39.27;40.35
70745;BME280;59284;31.390;34.904;2022-07-17T13:04:09;94252.94;;;39.08;41.44
70745;BME280;59284;31.390;34.904;2022-07-17T13:18:00;94253.66;;;41.62;38.90
70745;BME280;59284;31.390;34.904;2022-07-17T13:27:05;94260.38;;;39.13;40.94
70745;BME280;59284;31.390;34.904;2022-07-17T13:29:43;94260.88;;;37.72;42.45
70745;BME280;59284;31.390;34.904;2022-07-17T13:32:33;94257.66;;;39.61;39.77
70745;BME280;59284;31.390;34.904;2022-07-17T13:38:21;94248.66;;;39.39;41.16
70745;BME280;59284;31.390;34.904;2022-07-17T13:40:53;94262.91;;;39.22;40.88
70745;BME280;59284;31.390;34.904;2022-07-17T13:43:19;94252.47;;;39.63;38.67
70745;BME280;59284;31.390;34.904;2022-07-17T13:57:53;94244.25;;;40.44;40.27
70745;BME280;59284;31.390;34.904;2022-07-17T14:17:34;94234.03;;;38.20;44.39
70745;BME280;59284;31.390;34.904;2022-07-17T14:20:05;94236.69;;;37.43;46.61
70745;BME280;59284;31.390;34.904;2022-07-17T14:22:31;94232.19;;;38.32;45.18
70745;BME280;59284;31.390;34.904;2022-07-17T14:24:58;94243.56;;;37.44;47.84